MMMXMMMT

Guest
Details From MMMX - Licenciado Benito Juarez Intl
To MMMT - MINATITLAN
Flight Number -
Tags generated
Created
Modified
Stats Distance 268 nm / 496 km
Max Altitude 19,500 ft / 5,944 m
Waypoints 4
Social Downloads 0
Likes 0
Share VATSIM

Download

Looking for another format? Having issues loading an existing format? Contact us
Advertisement - Login to hide

Notes

Basic altitude profile: - Ascent Rate: 2500ft/min - Ascent Speed: 250kts - Cruise Altitude: 35000ft - Cruise Speed: 420kts - Descent Rate: 1500ft/min - Descent Speed: 250kts Options: - Use NATs: yes - Use PACOTS: yes - Use low airways: yes - Use high airways: yes

Route

MMMX PBC UJ5 MISAS MMMT

ID Type Via Altitude Latitude Longitude Leg Dist Tot Dist Heading (true) Name
O MMMX APT - 0 ft / 0 m 19.43631˚ -99.07210˚ - 0 nm - Licenciado Benito Juarez Intl
PBC VOR - 15,300 ft / 4,663 m 19.16092˚ -98.37017˚ 43 nm 43 nm 112° / 113° PUEBLA VOR-DME
MISAS FIX UJ5 (AWY-HI) 19,500 ft / 5,944 m 18.48596˚ -95.91743˚ 145 nm 188 nm 106° / 107° -
O MMMT APT - 0 ft / 0 m 18.10342˚ -94.58068˚ 79 nm 267 nm 107° / 107° MINATITLAN

Altitude Profile

Advertisement - Login to hide

Weather


0- 5 10 15 20 25 30 35+ Temperature / ° C

Clouds and Precipitation
Forecast for 2018-05-25 06:00 UTC. Updated 2 hours ago

Ground ~20,000 ft ~40,000 ft Winds

MMMX

Details ICAO MMMX (MEX)
Name Licenciado Benito Juarez Intl
Region Mexico
Timezone America/Mexico_City (UTC-5.0)
Stats Elevation 7,316 ft / 2,230 m (AMSL)
Location 19.436308° -99.072104°
Runways 2
Magnetic Variation 4.597° E

METAR

MMMX 250651Z 01003KT 10SM SKC 18/08 A3038 NOSIG

Decode

TAF

TAF AMD MMMX 250044Z 2501/2606 36010KT P6SM SCT030 SCT070 TX28/2521Z TN13/2513Z FM250600 00000KT 6SM HZ SCT030 TEMPO 2506/2510 BKN020 FM251200 07005KT 5SM HZ SCT020 FM251800 02010KT P6SM SCT020 FM260300 02005KT P6SM SCT080

Decode

Departure Runways

ID Width Length Bearing (true) Bearing (mag) Surface Threshold Offset Overrun Length
05L 148 ft / 45 m 12,951 ft / 3,948 m 59.25° 54.65° Asphalt 1,033 ft / 315 m 0 ft / 0 m
05R 148 ft / 45 m 12,800 ft / 3,902 m 59.26° 54.66° Asphalt 1,493 ft / 455 m 0 ft / 0 m
23L 148 ft / 45 m 12,800 ft / 3,902 m 239.28° 234.68° Asphalt 0 ft / 0 m 200 ft / 61 m
23R 148 ft / 45 m 12,951 ft / 3,948 m 239.27° 234.67° Asphalt 1,640 ft / 500 m 0 ft / 0 m

MMMT

Details ICAO MMMT (MTT)
Name MINATITLAN
Region Mexico
Timezone America/Mexico_City (UTC-5.0)
Stats Elevation 36 ft / 11 m (AMSL)
Location 18.103420° -94.580681°
Runways 1
Magnetic Variation 2.654° E

METAR

Not found

TAF

TAF MMMT 250504Z 2506/2606 34010KT P6SM SKC TEMPO 2510/2514 5SM HZ BKN015 FM251800 36015KT P6SM SCT020 BECMG 2602/2603 36006KT

Decode

Destination Runways

ID Width Length Bearing (true) Bearing (mag) Surface Threshold Offset Overrun Length
01 148 ft / 45 m 6,931 ft / 2,113 m 17.70° 15.05° Asphalt 0 ft / 0 m 200 ft / 61 m
19 148 ft / 45 m 6,931 ft / 2,113 m 197.70° 195.05° Asphalt 0 ft / 0 m 180 ft / 55 m

Popular Alternatives